Time;durP1;ratioP1;P1;durP2;ratioP2;P2;SDS_P1;SDS_P2;PMS_P1;PMS_P2;Temp;Humidity;BMP_temperature;BMP_pressure;BME280_temperature;BME280_humidity;BME280_pressure;Samples;Min_cycle;Max_cycle;Signal;HPM_P1;HPM_P2
2022/05/19 00:02:12;;;;;;;0.00;0.00;;;;;;;20.55;68.52;100813.91;5070388;28;20191;-72
2022/05/19 00:04:38;;;;;;;0.00;0.00;;;;;;;20.60;68.08;100818.34;5070729;28;20201;-71
2022/05/19 00:07:04;;;;;;;0.00;0.00;;;;;;;20.59;68.07;100816.75;5070728;28;20250;-72
2022/05/19 00:09:30;;;;;;;0.00;0.00;;;;;;;20.62;68.25;100816.78;5070758;28;20535;-71
2022/05/19 00:11:58;;;;;;;0.00;0.00;;;;;;;20.62;68.17;100819.56;5070568;28;20271;-72
2022/05/19 00:14:24;;;;;;;1.03;1.03;;;;;;;20.60;67.85;100815.56;5070639;28;20174;-72
2022/05/19 00:16:49;;;;;;;0.00;0.00;;;;;;;20.50;68.26;100815.00;5070592;28;20532;-72
2022/05/19 00:19:15;;;;;;;0.00;0.00;;;;;;;20.41;68.43;100803.34;5070314;28;20167;-71
2022/05/19 00:21:42;;;;;;;0.00;0.00;;;;;;;20.47;68.31;100806.59;5070211;28;20261;-71
2022/05/19 00:24:08;;;;;;;0.00;0.00;;;;;;;20.39;68.52;100805.63;5071315;28;20330;-71
2022/05/19 00:26:33;;;;;;;0.00;0.00;;;;;;;20.40;68.50;100803.69;5074160;28;20199;-71
2022/05/19 00:28:59;;;;;;;0.00;0.00;;;;;;;20.38;68.55;100797.69;5074360;28;20524;-71
2022/05/19 00:31:26;;;;;;;0.00;0.00;;;;;;;20.40;68.50;100800.91;5074060;28;20169;-71
2022/05/19 00:33:51;;;;;;;0.00;0.00;;;;;;;20.46;68.24;100793.91;5074195;28;20565;-71
2022/05/19 00:36:19;;;;;;;0.00;0.00;;;;;;;20.43;68.08;100797.44;5074067;28;20163;-72
2022/05/19 00:38:45;;;;;;;0.00;0.00;;;;;;;20.45;68.37;100800.63;5073937;28;20176;-71
2022/05/19 00:41:12;;;;;;;0.00;0.00;;;;;;;20.43;68.19;100797.44;5072535;28;20174;-71
2022/05/19 00:43:41;;;;;;;0.00;0.00;;;;;;;20.39;68.60;100800.09;5073559;28;20215;-71
2022/05/19 00:46:18;;;;;;;0.00;0.00;;;;;;;20.44;68.74;100797.06;5072316;28;20544;-71
2022/05/19 00:49:02;;;;;;;0.10;0.10;;;;;;;20.32;69.79;100799.16;5073664;28;20175;-71
2022/05/19 00:51:45;;;;;;;0.00;0.00;;;;;;;20.25;69.88;100796.25;5073878;28;20177;-72
2022/05/19 00:54:16;;;;;;;0.37;0.37;;;;;;;20.16;70.20;100796.50;5073924;28;20527;-71
2022/05/19 00:56:51;;;;;;;0.00;0.00;;;;;;;20.01;71.54;100789.06;5073731;28;20163;-71
2022/05/19 00:59:27;;;;;;;0.00;0.00;;;;;;;19.83;72.79;100784.00;5073598;28;20520;-71
2022/05/19 01:01:55;;;;;;;0.00;0.00;;;;;;;19.67;73.99;100787.97;5073669;28;20213;-71
2022/05/19 01:04:36;;;;;;;0.00;0.00;;;;;;;19.42;74.76;100782.69;5073698;28;20228;-71
2022/05/19 01:07:07;;;;;;;0.00;0.00;;;;;;;19.42;74.86;100782.69;5073403;28;20232;-72
2022/05/19 01:09:35;;;;;;;0.00;0.00;;;;;;;19.42;75.78;100784.66;5073166;28;20250;-71
2022/05/19 01:12:03;;;;;;;0.00;0.00;;;;;;;19.32;76.35;100775.75;5073398;28;20176;-71
2022/05/19 01:14:29;;;;;;;0.00;0.00;;;;;;;19.14;77.29;100779.28;5073432;28;20203;-71
2022/05/19 01:16:55;;;;;;;0.57;0.57;;;;;;;19.09;77.81;100776.78;5073242;28;20630;-71
2022/05/19 01:19:31;;;;;;;0.07;0.07;;;;;;;18.94;79.00;100783.97;5073566;28;20179;-71
2022/05/19 01:22:06;;;;;;;0.00;0.00;;;;;;;18.84;79.49;100776.22;5073255;28;20173;-72
2022/05/19 01:24:39;;;;;;;0.00;0.00;;;;;;;18.77;80.12;100782.38;5073098;28;20172;-71
2022/05/19 01:27:04;;;;;;;9.60;0.30;;;;;;;18.70;80.29;100787.75;5073170;28;20178;-71
2022/05/19 01:29:29;;;;;;;0.00;0.00;;;;;;;18.62;80.89;100775.66;5073053;28;20174;-71
2022/05/19 01:31:58;;;;;;;0.00;0.00;;;;;;;18.63;79.66;100785.59;5072745;28;20539;-71
2022/05/19 01:34:34;;;;;;;0.00;0.00;;;;;;;18.66;79.83;100782.13;5072805;28;20182;-71
2022/05/19 01:36:59;;;;;;;0.00;0.00;;;;;;;18.79;79.53;100782.00;5072468;28;20165;-71
2022/05/19 01:39:28;;;;;;;0.00;0.00;;;;;;;18.83;79.00;100778.19;5072809;28;20175;-72
2022/05/19 01:42:03;;;;;;;0.00;0.00;;;;;;;18.83;78.14;100780.97;5072773;28;20231;-71
2022/05/19 01:44:53;;;;;;;0.00;0.00;;;;;;;18.83;78.67;100783.72;5072631;28;20178;-71
2022/05/19 01:48:19;;;;;;;0.03;0.03;;;;;;;18.76;79.34;100783.53;5072582;28;20531;-72
2022/05/19 01:51:02;;;;;;;0.10;0.10;;;;;;;18.79;77.89;100780.03;5030156;28;20238;-71
2022/05/19 01:53:36;;;;;;;0.13;0.10;;;;;;;18.79;78.42;100779.25;5030170;28;20560;-71
2022/05/19 01:56:17;;;;;;;0.00;0.00;;;;;;;18.86;77.79;100783.00;5063625;28;20186;-71
2022/05/19 01:58:56;;;;;;;0.00;0.00;;;;;;;18.91;77.39;100777.19;5071908;28;20177;-71
2022/05/19 02:01:25;;;;;;;0.07;0.07;;;;;;;18.88;77.47;100777.91;5071968;28;20174;-71
2022/05/19 02:04:17;;;;;;;0.10;0.10;;;;;;;18.85;78.03;100783.38;5072273;28;20202;-71
2022/05/19 02:06:54;;;;;;;0.20;0.20;;;;;;;18.84;77.73;100781.75;5072227;28;20163;-71
2022/05/19 02:09:25;;;;;;;0.10;0.10;;;;;;;18.85;77.27;100781.41;5072465;28;20170;-71
2022/05/19 02:11:56;;;;;;;0.10;0.10;;;;;;;18.85;77.21;100786.94;5072507;28;20208;-71
2022/05/19 02:14:38;;;;;;;0.00;0.00;;;;;;;18.82;77.86;100781.31;5072258;28;20186;-71
2022/05/19 02:17:10;;;;;;;1.80;1.70;;;;;;;18.75;78.16;100787.47;5071879;28;20171;-71
2022/05/19 02:19:45;;;;;;;0.00;0.00;;;;;;;18.72;78.76;100780.69;5071969;28;20174;-71
2022/05/19 02:22:15;;;;;;;0.00;0.00;;;;;;;18.62;79.75;100777.63;5071989;28;20581;-71
2022/05/19 02:24:47;;;;;;;0.00;0.00;;;;;;;18.52;80.58;100781.75;5072074;28;20305;-71
2022/05/19 02:27:36;;;;;;;0.00;0.00;;;;;;;18.43;80.81;100772.81;5071842;28;20215;-71
2022/05/19 02:30:06;;;;;;;0.00;0.00;;;;;;;18.50;79.48;100775.75;5071950;28;20256;-71
2022/05/19 02:32:32;;;;;;;0.10;0.10;;;;;;;18.56;78.49;100779.06;5071895;28;20175;-71
2022/05/19 02:34:57;;;;;;;0.00;0.00;;;;;;;18.59;78.50;100773.59;5071700;28;20170;-71
2022/05/19 02:37:23;;;;;;;0.00;0.00;;;;;;;18.64;78.37;100776.13;5071693;28;20178;-71
2022/05/19 02:39:48;;;;;;;5.33;4.90;;;;;;;18.74;77.61;100774.78;5071616;28;20185;-71
2022/05/19 02:42:14;;;;;;;0.00;0.00;;;;;;;18.75;77.05;100779.16;5071731;28;20636;-71
2022/05/19 02:44:39;;;;;;;0.10;0.10;;;;;;;18.83;76.66;100774.63;5071513;28;20191;-71
2022/05/19 02:47:04;;;;;;;0.00;0.00;;;;;;;18.89;76.27;100770.41;5071142;28;20232;-71
2022/05/19 02:49:30;;;;;;;0.00;0.00;;;;;;;18.89;75.77;100768.44;5071521;28;20507;-72
2022/05/19 02:51:55;;;;;;;0.00;0.00;;;;;;;18.92;75.40;100761.38;5071581;28;20256;-71
2022/05/19 02:54:21;;;;;;;0.00;0.00;;;;;;;19.03;74.64;100767.97;5071743;28;20546;-71
2022/05/19 02:56:48;;;;;;;0.00;0.00;;;;;;;19.03;74.22;100768.75;5071427;28;20167;-71
2022/05/19 02:59:13;;;;;;;0.00;0.00;;;;;;;19.06;73.76;100771.97;5071419;28;20175;-71
2022/05/19 03:01:38;;;;;;;0.10;0.10;;;;;;;19.03;73.81;100767.97;5071161;28;20706;-71
2022/05/19 03:04:04;;;;;;;0.50;0.43;;;;;;;19.12;73.62;100776.09;5071167;28;20202;-71
2022/05/19 03:06:29;;;;;;;0.00;0.00;;;;;;;19.15;73.52;100767.84;5071345;28;20188;-71
2022/05/19 03:08:54;;;;;;;0.30;0.30;;;;;;;19.20;72.91;100775.06;5071313;28;20687;-71
2022/05/19 03:11:20;;;;;;;0.00;0.00;;;;;;;19.26;72.49;100777.22;5070914;28;20261;-71
2022/05/19 03:13:45;;;;;;;0.00;0.00;;;;;;;19.18;72.70;100771.84;5071224;28;20179;-71
2022/05/19 03:16:10;;;;;;;0.00;0.00;;;;;;;19.17;72.59;100773.03;5071276;28;20175;-71
2022/05/19 03:18:36;;;;;;;0.90;0.30;;;;;;;19.19;72.48;100771.50;5071100;28;20178;-71
2022/05/19 03:21:01;;;;;;;0.00;0.00;;;;;;;19.16;72.39;100765.88;5071415;28;20178;-71
2022/05/19 03:23:26;;;;;;;0.00;0.00;;;;;;;19.15;72.56;100770.63;5071201;28;20222;-71
2022/05/19 03:25:54;;;;;;;0.07;0.07;;;;;;;19.16;72.85;100765.88;5071161;28;20178;-71
2022/05/19 03:28:19;;;;;;;0.00;0.00;;;;;;;19.12;72.66;100776.09;5070951;28;20183;-71
2022/05/19 03:30:45;;;;;;;0.00;0.00;;;;;;;19.13;72.43;100764.63;5071059;28;20185;-71
2022/05/19 03:33:11;;;;;;;0.00;0.00;;;;;;;19.10;72.86;100772.88;5070935;28;20529;-72
2022/05/19 03:35:37;;;;;;;0.00;0.00;;;;;;;19.00;73.14;100763.94;5070714;28;20182;-71
2022/05/19 03:38:03;;;;;;;0.00;0.00;;;;;;;19.08;73.02;100772.41;5070827;28;20178;-71
2022/05/19 03:40:28;;;;;;;0.00;0.00;;;;;;;18.99;73.13;100770.66;5070962;28;20182;-71
2022/05/19 03:42:54;;;;;;;1.77;0.47;;;;;;;19.05;73.20;100779.47;5070744;28;20208;-71
2022/05/19 03:45:19;;;;;;;0.00;0.00;;;;;;;19.02;73.19;100772.69;5070839;28;20220;-71
2022/05/19 03:47:44;;;;;;;0.10;0.10;;;;;;;19.02;73.41;100771.91;5070784;28;20179;-71
2022/05/19 03:50:11;;;;;;;2.73;2.53;;;;;;;18.92;73.41;100770.47;5070806;28;20182;-71
2022/05/19 03:52:38;;;;;;;0.90;0.90;;;;;;;18.94;73.48;100770.91;5070926;28;20177;-71
2022/05/19 03:55:04;;;;;;;0.00;0.00;;;;;;;19.01;73.29;100764.75;5070952;28;20177;-71
2022/05/19 03:57:30;;;;;;;2.30;0.60;;;;;;;19.07;73.11;100762.50;5070603;28;20182;-71
2022/05/19 03:59:55;;;;;;;0.10;0.10;;;;;;;19.15;72.58;100767.03;5072573;28;20170;-71
2022/05/19 04:02:21;;;;;;;0.00;0.00;;;;;;;19.03;73.16;100766.00;5074538;28;20534;-72
2022/05/19 04:04:46;;;;;;;0.00;0.00;;;;;;;19.00;73.24;100772.25;5074713;28;20261;-71
2022/05/19 04:07:11;;;;;;;0.10;0.10;;;;;;;19.03;73.30;100776.28;5074611;28;20166;-71
2022/05/19 04:09:37;;;;;;;0.90;0.73;;;;;;;19.09;72.92;100772.03;5074772;28;20518;-71
2022/05/19 04:12:03;;;;;;;0.83;0.57;;;;;;;19.09;72.91;100782.31;5074394;28;20258;-71
2022/05/19 04:14:28;;;;;;;0.10;0.10;;;;;;;19.09;73.03;100776.78;5074363;28;20199;-71
2022/05/19 04:16:53;;;;;;;0.50;0.50;;;;;;;19.06;73.50;100774.75;5074307;28;20171;-71
2022/05/19 04:19:19;;;;;;;0.10;0.10;;;;;;;19.02;73.57;100777.44;5074208;28;20630;-71
2022/05/19 04:21:45;;;;;;;1.03;1.03;;;;;;;19.02;73.64;100780.22;5074193;28;20552;-71
2022/05/19 04:24:12;;;;;;;0.00;0.00;;;;;;;18.99;73.67;100775.41;5073902;28;20202;-72
2022/05/19 04:26:37;;;;;;;0.20;0.20;;;;;;;18.97;74.21;100770.22;5073969;28;20167;-71
2022/05/19 04:29:03;;;;;;;0.37;0.37;;;;;;;19.01;73.81;100776.63;5072717;28;20653;-72
2022/05/19 04:31:29;;;;;;;0.20;0.20;;;;;;;19.07;73.41;100776.34;5073940;28;20768;-71
2022/05/19 04:33:54;;;;;;;0.00;0.00;;;;;;;19.01;73.15;100779.41;5074085;28;20174;-71
2022/05/19 04:36:19;;;;;;;0.00;0.00;;;;;;;19.06;72.90;100772.78;5074041;28;20172;-71
2022/05/19 04:38:45;;;;;;;0.00;0.00;;;;;;;19.13;72.50;100786.00;5073999;28;20170;-71
2022/05/19 04:41:10;;;;;;;0.00;0.00;;;;;;;19.22;72.16;100783.81;5073877;28;20673;-71
2022/05/19 04:43:36;;;;;;;0.00;0.00;;;;;;;19.30;71.67;100775.31;5073302;28;20221;-71
2022/05/19 04:46:01;;;;;;;1.90;1.90;;;;;;;19.38;70.66;100790.09;5073502;28;20183;-71
2022/05/19 04:48:27;;;;;;;0.00;0.00;;;;;;;19.44;70.45;100788.69;5073199;28;20184;-71
2022/05/19 04:50:54;;;;;;;0.00;0.00;;;;;;;19.56;69.15;100790.53;5073422;28;20175;-71
2022/05/19 04:53:20;;;;;;;0.00;0.00;;;;;;;19.57;70.04;100783.84;5073378;28;20180;-72
2022/05/19 04:55:46;;;;;;;0.00;0.00;;;;;;;19.47;70.96;100790.72;5073635;28;20544;-72
2022/05/19 04:58:11;;;;;;;0.00;0.00;;;;;;;19.46;71.34;100794.66;5073674;28;20178;-71
2022/05/19 05:00:37;;;;;;;0.00;0.00;;;;;;;19.59;70.48;100790.63;5073073;28;20166;-71
2022/05/19 05:03:04;;;;;;;0.10;0.10;;;;;;;19.56;70.87;100785.81;5073160;28;20201;-71
2022/05/19 05:05:29;;;;;;;0.00;0.00;;;;;;;19.57;70.60;100787.41;5073090;28;20265;-71
2022/05/19 05:07:55;;;;;;;0.00;0.00;;;;;;;19.62;69.81;100783.53;5073036;28;20550;-71
2022/05/19 05:10:20;;;;;;;0.47;0.37;;;;;;;19.80;68.96;100792.22;5072109;28;20653;-71
2022/05/19 05:12:45;;;;;;;0.53;0.53;;;;;;;19.83;68.49;100786.75;5072798;28;20170;-71
2022/05/19 05:15:11;;;;;;;0.00;0.00;;;;;;;19.92;68.24;100794.84;5073369;28;20257;-71
2022/05/19 05:17:37;;;;;;;0.00;0.00;;;;;;;19.98;68.05;100796.16;5072818;28;20170;-71
2022/05/19 05:20:03;;;;;;;0.57;0.57;;;;;;;20.03;67.56;100790.31;5072895;28;20171;-71
2022/05/19 05:22:30;;;;;;;0.00;0.00;;;;;;;20.06;67.43;100797.88;5072799;28;20193;-71
2022/05/19 05:24:56;;;;;;;0.67;0.67;;;;;;;20.05;67.18;100799.06;5073173;28;20526;-71
2022/05/19 05:27:21;;;;;;;0.83;0.83;;;;;;;20.08;67.37;100803.88;5072638;28;20530;-71
2022/05/19 05:29:47;;;;;;;0.67;0.67;;;;;;;20.09;67.24;100802.69;5072968;28;20180;-71
2022/05/19 05:32:12;;;;;;;1.53;1.43;;;;;;;20.12;66.29;100802.00;5072696;28;20185;-71
2022/05/19 05:34:37;;;;;;;0.77;0.77;;;;;;;20.11;66.22;100817.03;5072920;28;20163;-71
2022/05/19 05:37:04;;;;;;;0.10;0.10;;;;;;;20.15;66.29;100817.09;5072466;28;20198;-71
2022/05/19 05:39:29;;;;;;;0.40;0.20;;;;;;;20.15;66.32;100808.78;5072451;28;20169;-72
2022/05/19 05:41:55;;;;;;;0.70;0.70;;;;;;;20.18;66.39;100810.81;5072734;28;20197;-71
2022/05/19 05:44:20;;;;;;;0.33;0.20;;;;;;;20.21;65.96;100821.16;5072509;28;20251;-71
2022/05/19 05:46:45;;;;;;;1.60;1.50;;;;;;;20.25;66.26;100801.78;5074995;28;20168;-72
2022/05/19 05:49:11;;;;;;;0.87;0.83;;;;;;;20.27;66.28;100814.16;5074067;28;20166;-71
2022/05/19 05:51:36;;;;;;;0.83;0.83;;;;;;;20.30;65.36;100818.16;5072388;28;20262;-71
2022/05/19 05:54:02;;;;;;;3.93;1.40;;;;;;;20.33;64.88;100809.91;5072301;28;20175;-71
2022/05/19 05:56:27;;;;;;;0.70;0.70;;;;;;;20.35;64.58;100807.56;5072701;28;20521;-71
2022/05/19 05:58:52;;;;;;;0.93;0.93;;;;;;;20.38;63.81;100812.34;5071956;28;20170;-72
2022/05/19 06:01:19;;;;;;;2.97;1.47;;;;;;;20.42;63.99;100818.81;5071803;28;20181;-71
2022/05/19 06:03:46;;;;;;;0.93;0.93;;;;;;;20.42;64.28;100818.81;5071922;28;20202;-71
2022/05/19 06:06:12;;;;;;;0.60;0.60;;;;;;;20.46;64.30;100822.47;5071877;28;20560;-71
2022/05/19 06:08:38;;;;;;;0.90;0.90;;;;;;;20.49;64.18;100832.03;5071798;28;20257;-71
2022/05/19 06:11:05;;;;;;;2.57;1.23;;;;;;;20.55;64.20;100827.78;5071819;28;20170;-71
2022/05/19 06:13:31;;;;;;;0.67;0.67;;;;;;;20.57;64.31;100836.53;5071648;28;20266;-71
2022/05/19 06:15:57;;;;;;;1.17;0.70;;;;;;;20.61;63.62;100833.81;5071702;28;20639;-71
2022/05/19 06:18:22;;;;;;;0.23;0.23;;;;;;;20.66;63.57;100839.84;5071544;28;20179;-71
2022/05/19 06:20:48;;;;;;;1.40;1.30;;;;;;;20.69;64.15;100846.66;5071465;28;20170;-71
2022/05/19 06:23:16;;;;;;;0.30;0.30;;;;;;;20.69;63.92;100847.47;5071123;28;20205;-71
2022/05/19 06:25:42;;;;;;;0.60;0.60;;;;;;;20.69;64.48;100839.16;5071596;28;20363;-71
2022/05/19 06:28:07;;;;;;;0.07;0.07;;;;;;;20.72;64.73;100841.16;5071409;28;20259;-71
2022/05/19 06:30:32;;;;;;;0.00;0.00;;;;;;;20.74;64.26;100838.03;5071862;28;20596;-71
2022/05/19 06:32:58;;;;;;;1.77;0.47;;;;;;;20.80;64.17;100840.09;5071381;28;20205;-72
2022/05/19 06:35:27;;;;;;;1.80;0.83;;;;;;;20.87;63.43;100835.84;5071707;28;20171;-71
2022/05/19 06:37:53;;;;;;;1.07;1.07;;;;;;;20.97;64.18;100841.56;5071533;28;20590;-71
2022/05/19 06:40:19;;;;;;;0.00;0.00;;;;;;;21.04;64.06;100843.69;5071198;28;20228;-71
2022/05/19 06:42:46;;;;;;;1.40;1.30;;;;;;;21.07;63.13;100846.50;5071302;28;20199;-71
2022/05/19 06:45:14;;;;;;;1.40;1.30;;;;;;;21.14;63.16;100831.94;5071124;28;20272;-71
2022/05/19 06:47:39;;;;;;;0.00;0.00;;;;;;;21.19;63.19;100837.16;5071047;28;20250;-71
2022/05/19 06:50:08;;;;;;;0.00;0.00;;;;;;;21.44;63.39;100834.78;5070950;28;20175;-72
2022/05/19 06:52:42;;;;;;;0.57;0.47;;;;;;;21.55;61.99;100838.50;5071016;28;20176;-71
2022/05/19 06:55:07;;;;;;;0.50;0.50;;;;;;;21.58;60.19;100836.97;5071201;28;20203;-72
2022/05/19 06:57:33;;;;;;;0.40;0.40;;;;;;;21.71;60.84;100824.44;5070709;28;20593;-71
2022/05/19 06:59:58;;;;;;;0.00;0.00;;;;;;;21.83;60.56;100832.50;5071233;28;20190;-72
2022/05/19 07:02:25;;;;;;;0.50;0.50;;;;;;;21.90;59.84;100840.97;5070559;28;20183;-72
2022/05/19 07:04:52;;;;;;;0.40;0.40;;;;;;;22.03;59.38;100829.59;5070667;28;20308;-72
2022/05/19 07:07:18;;;;;;;0.00;0.00;;;;;;;22.09;59.09;100828.09;5070431;28;20223;-72
2022/05/19 07:09:44;;;;;;;0.50;0.50;;;;;;;22.12;57.30;100819.78;5070425;28;20206;-71
2022/05/19 07:12:11;;;;;;;1.23;1.13;;;;;;;22.12;57.94;100818.97;5070878;28;20176;-72
2022/05/19 07:14:38;;;;;;;0.90;0.90;;;;;;;22.10;57.52;100813.78;5070908;28;20631;-72
2022/05/19 07:17:04;;;;;;;0.73;0.73;;;;;;;22.27;57.80;100815.16;5070767;28;20227;-71
2022/05/19 07:22:18;;;;;;;0.10;0.10;;;;;;;22.46;56.60;100814.97;5070828;28;20534;-72
2022/05/19 07:24:43;;;;;;;0.33;0.33;;;;;;;22.53;56.87;100803.09;5070929;28;20176;-72
2022/05/19 07:27:09;;;;;;;0.30;0.30;;;;;;;22.46;55.71;100814.97;5070613;28;20177;-71
2022/05/19 07:29:34;;;;;;;1.13;1.07;;;;;;;22.61;56.75;100815.09;5070569;28;20466;-72
2022/05/19 07:32:03;;;;;;;0.00;0.00;;;;;;;22.68;55.37;100810.38;5070930;28;20416;-71
2022/05/19 07:34:30;;;;;;;0.37;0.37;;;;;;;22.64;55.35;100806.78;5070974;28;20185;-71
2022/05/19 07:36:57;;;;;;;0.00;0.00;;;;;;;22.69;56.07;100805.59;5075119;28;20259;-73
2022/05/19 07:39:24;;;;;;;0.67;0.67;;;;;;;22.73;55.79;100796.13;5074797;28;20183;-71
2022/05/19 07:41:51;;;;;;;1.00;1.00;;;;;;;22.80;55.35;100793.38;5074625;28;20670;-71
2022/05/19 07:44:17;;;;;;;0.27;0.27;;;;;;;22.86;55.83;100782.72;5074567;28;20434;-71
2022/05/19 07:46:43;;;;;;;0.30;0.30;;;;;;;22.99;56.08;100786.78;5073251;28;20182;-73
2022/05/19 07:49:08;;;;;;;1.60;1.07;;;;;;;23.08;55.01;100790.03;5074495;28;20170;-74
2022/05/19 07:51:37;;;;;;;0.00;0.00;;;;;;;23.09;54.71;100788.84;5074554;28;20170;-72
2022/05/19 07:54:26;;;;;;;0.00;0.00;;;;;;;23.29;56.27;100783.81;5074415;28;20174;-72
2022/05/19 07:56:52;;;;;;;0.47;0.47;;;;;;;23.23;54.05;100785.34;5063986;28;20214;-71
2022/05/19 07:59:19;;;;;;;0.00;0.00;;;;;;;23.23;53.62;100779.78;5074291;28;20183;-71
2022/05/19 08:01:46;;;;;;;0.57;0.57;;;;;;;23.23;53.90;100781.75;5073945;28;20220;-71
2022/05/19 08:04:14;;;;;;;0.47;0.47;;;;;;;23.34;53.92;100775.06;5074355;28;20233;-71
2022/05/19 08:06:40;;;;;;;0.10;0.10;;;;;;;23.38;54.18;100769.50;5074064;28;20170;-71
2022/05/19 08:11:52;;;;;;;0.00;0.00;;;;;;;23.54;52.93;100772.75;5074379;28;20296;-71
2022/05/19 08:17:02;;;;;;;0.30;0.20;;;;;;;23.75;54.87;100763.72;5073858;28;20178;-72
2022/05/19 08:19:27;;;;;;;0.50;0.50;;;;;;;23.76;53.47;100765.31;5064912;28;20178;-72
2022/05/19 08:21:53;;;;;;;0.00;0.00;;;;;;;23.89;55.07;100765.75;5073808;28;20189;-72
2022/05/19 08:24:18;;;;;;;0.23;0.23;;;;;;;23.97;55.51;100762.56;5073737;28;20305;-72
2022/05/19 08:26:43;;;;;;;0.30;0.30;;;;;;;23.96;56.93;100766.56;5073631;28;20235;-72
2022/05/19 08:29:09;;;;;;;0.50;0.50;;;;;;;23.93;52.87;100767.34;5073713;28;20824;-72
2022/05/19 08:31:35;;;;;;;0.43;0.43;;;;;;;24.03;55.24;100777.75;5071624;28;20191;-72
2022/05/19 08:34:03;;;;;;;0.00;0.00;;;;;;;24.08;52.82;100770.19;5072191;28;20261;-71
2022/05/19 08:36:29;;;;;;;0.00;0.00;;;;;;;24.15;54.27;100781.34;5073686;28;20608;-72
2022/05/19 08:38:55;;;;;;;0.80;0.80;;;;;;;24.29;54.03;100773.00;5073434;28;20178;-71
2022/05/19 08:41:45;;;;;;;0.10;0.10;;;;;;;24.33;53.99;100774.66;5073614;28;20202;-72
2022/05/19 08:44:16;;;;;;;0.00;0.00;;;;;;;24.43;52.46;100766.66;5073312;28;20245;-72
2022/05/19 08:46:47;;;;;;;0.00;0.00;;;;;;;24.60;52.81;100760.31;5073267;28;20170;-73
2022/05/19 08:49:29;;;;;;;0.00;0.00;;;;;;;24.78;52.30;100769.47;5055271;28;20186;-72
2022/05/19 08:52:06;;;;;;;0.00;0.00;;;;;;;24.84;50.72;100767.88;5072054;28;20218;-72
2022/05/19 08:54:32;;;;;;;0.10;0.10;;;;;;;24.87;51.34;100774.66;5073554;28;20182;-73
2022/05/19 08:57:22;;;;;;;0.00;0.00;;;;;;;25.01;51.29;100787.84;5073191;28;20170;-72
2022/05/19 09:00:14;;;;;;;0.00;0.00;;;;;;;25.05;50.84;100767.09;5073205;28;20232;-72
2022/05/19 09:02:44;;;;;;;0.00;0.00;;;;;;;24.97;50.25;100768.25;5073166;28;20201;-72
2022/05/19 09:05:42;;;;;;;0.20;0.20;;;;;;;24.98;50.88;100771.84;5073528;28;20285;-72
2022/05/19 09:08:24;;;;;;;0.00;0.00;;;;;;;25.13;50.50;100767.84;5073320;28;20166;-73
2022/05/19 09:10:59;;;;;;;0.00;0.00;;;;;;;25.28;49.73;100763.00;5073345;28;20205;-72
2022/05/19 09:13:38;;;;;;;0.50;0.50;;;;;;;25.32;48.39;100763.81;5073007;28;20216;-72
2022/05/19 09:16:11;;;;;;;0.00;0.00;;;;;;;25.31;50.05;100751.81;5072994;28;20155;-72
2022/05/19 09:18:42;;;;;;;0.80;0.80;;;;;;;25.34;49.14;100745.44;5072836;28;20162;-72
2022/05/19 09:21:08;;;;;;;0.07;0.07;;;;;;;25.21;49.77;100742.28;5072860;28;20166;-72
2022/05/19 09:23:40;;;;;;;0.00;0.00;;;;;;;25.32;49.03;100741.44;5072780;28;20198;-72
2022/05/19 09:26:52;;;;;;;0.43;0.43;;;;;;;25.56;49.14;100736.94;5072876;28;20171;-72
2022/05/19 09:29:38;;;;;;;0.87;0.87;;;;;;;25.42;49.50;100732.19;5042315;28;20274;-72
2022/05/19 09:32:14;;;;;;;0.20;0.20;;;;;;;25.37;50.07;100719.44;5052614;28;20233;-72
2022/05/19 09:34:44;;;;;;;0.00;0.00;;;;;;;25.70;50.00;100717.31;5052566;28;20563;-72
2022/05/19 09:37:11;;;;;;;0.00;0.00;;;;;;;25.85;48.66;100710.41;5052481;28;20171;-72
2022/05/19 09:40:06;;;;;;;1.27;1.23;;;;;;;25.94;49.01;100716.38;5052281;28;20175;-72
2022/05/19 09:42:36;;;;;;;0.77;0.77;;;;;;;25.90;47.97;100703.63;5052525;28;20178;-71
2022/05/19 09:45:01;;;;;;;0.10;0.10;;;;;;;25.83;48.71;100690.44;5051879;28;20179;-72
2022/05/19 09:47:36;;;;;;;0.00;0.00;;;;;;;25.90;49.86;100696.00;5051722;28;20604;-71
2022/05/19 09:50:10;;;;;;;0.87;0.87;;;;;;;25.72;48.33;100689.69;5051854;28;20171;-71
2022/05/19 09:52:40;;;;;;;0.50;0.50;;;;;;;25.69;49.15;100693.31;5051786;28;20175;-71
2022/05/19 09:55:08;;;;;;;0.00;0.00;;;;;;;25.60;49.18;100693.72;5051806;28;20574;-71
2022/05/19 09:57:52;;;;;;;1.27;1.17;;;;;;;25.55;49.47;100702.56;5050641;28;20171;-71
2022/05/19 10:00:32;;;;;;;0.17;0.10;;;;;;;25.64;49.58;100700.13;5051188;28;20181;-71
2022/05/19 10:03:01;;;;;;;24.13;2.17;;;;;;;25.86;49.17;100706.41;5051602;28;20190;-71
2022/05/19 10:05:47;;;;;;;0.30;0.30;;;;;;;25.98;48.88;100703.13;5051556;28;20662;-71
2022/05/19 10:08:37;;;;;;;0.60;0.60;;;;;;;26.12;48.38;100701.44;5051206;28;20171;-71
2022/05/19 10:11:21;;;;;;;0.47;0.47;;;;;;;26.10;47.97;100694.25;5051504;28;20246;-71
2022/05/19 10:13:51;;;;;;;0.60;0.60;;;;;;;25.93;47.80;100689.59;5051609;28;20537;-71
2022/05/19 10:16:19;;;;;;;0.20;0.20;;;;;;;25.83;48.11;100690.44;5051775;28;20171;-72
2022/05/19 10:18:49;;;;;;;0.23;0.23;;;;;;;25.93;48.55;100677.59;5050870;28;20642;-71
2022/05/19 10:21:20;;;;;;;0.53;0.53;;;;;;;26.13;48.85;100691.84;5051299;28;20635;-71
2022/05/19 10:24:01;;;;;;;0.70;0.70;;;;;;;26.21;47.32;100688.59;5052299;28;20237;-71
2022/05/19 10:26:48;;;;;;;0.50;0.50;;;;;;;26.12;47.03;100684.66;5051161;28;20175;-71
2022/05/19 10:32:45;;;;;;;0.20;0.20;;;;;;;26.45;46.97;100678.38;5051318;28;20523;-72
2022/05/19 10:35:27;;;;;;;1.03;1.03;;;;;;;26.35;47.60;100659.66;5051049;28;20643;-71
2022/05/19 10:38:21;;;;;;;0.40;0.40;;;;;;;26.52;47.82;100660.72;5050731;28;20168;-71
2022/05/19 10:41:14;;;;;;;2.27;0.73;;;;;;;26.82;48.37;100660.81;5050801;28;20164;-71
2022/05/19 10:43:39;;;;;;;1.50;1.40;;;;;;;26.85;45.00;100661.97;5050651;28;20650;-71
2022/05/19 10:46:07;;;;;;;0.20;0.20;;;;;;;26.79;43.70;100649.63;5050769;28;20477;-72
2022/05/19 10:48:51;;;;;;;7.67;1.00;;;;;;;26.96;44.93;100651.44;5050463;28;20658;-71
2022/05/19 10:51:23;;;;;;;0.13;0.13;;;;;;;26.86;45.65;100646.75;5050784;28;20171;-71
2022/05/19 10:53:51;;;;;;;0.10;0.10;;;;;;;26.77;44.74;100632.44;5050715;28;20170;-71
2022/05/19 10:56:39;;;;;;;0.27;0.27;;;;;;;26.86;44.17;100629.91;5050616;28;20275;-71
2022/05/19 10:59:32;;;;;;;0.67;0.67;;;;;;;26.78;44.01;100636.84;5050468;28;20155;-71
2022/05/19 11:02:12;;;;;;;0.30;0.20;;;;;;;26.80;45.39;100628.78;5050156;28;20258;-72
2022/05/19 11:04:38;;;;;;;0.10;0.10;;;;;;;27.02;44.21;100618.94;5050608;28;20198;-71
2022/05/19 11:07:34;;;;;;;2.50;0.80;;;;;;;26.97;42.48;100611.75;5050353;28;20167;-71
2022/05/19 11:10:06;;;;;;;0.33;0.10;;;;;;;27.09;44.63;100613.25;5050385;28;20176;-71
2022/05/19 11:13:15;;;;;;;0.00;0.00;;;;;;;27.31;43.78;100610.94;5050320;28;20173;-72
2022/05/19 11:15:50;;;;;;;1.10;1.10;;;;;;;27.61;42.21;100610.09;5050372;28;20540;-71
2022/05/19 11:18:23;;;;;;;0.83;0.83;;;;;;;27.49;42.90;100600.28;5050043;28;20196;-71
2022/05/19 11:21:12;;;;;;;4.27;1.73;;;;;;;27.25;42.36;100585.38;5050258;28;20531;-71
2022/05/19 11:23:53;;;;;;;0.90;0.90;;;;;;;26.99;43.36;100591.69;5050397;28;20207;-71
2022/05/19 11:26:31;;;;;;;0.60;0.60;;;;;;;26.88;43.36;100588.22;5050319;28;20178;-71
2022/05/19 11:28:59;;;;;;;0.00;0.00;;;;;;;27.10;41.92;100586.00;5050069;28;20164;-72
2022/05/19 11:31:30;;;;;;;0.47;0.13;;;;;;;27.14;43.00;100559.47;5050110;28;20650;-73
2022/05/19 11:33:59;;;;;;;0.53;0.53;;;;;;;27.13;42.71;100554.28;5050161;28;20661;-71
2022/05/19 11:36:46;;;;;;;0.07;0.07;;;;;;;27.20;43.03;100557.78;5050285;28;20175;-71
2022/05/19 11:39:19;;;;;;;0.63;0.63;;;;;;;27.23;41.12;100551.34;5049996;28;20492;-71
2022/05/19 11:41:47;;;;;;;1.30;1.20;;;;;;;27.18;42.51;100560.19;5050155;28;20167;-71
2022/05/19 11:44:37;;;;;;;0.73;0.63;;;;;;;27.31;41.76;100551.22;5049926;28;20210;-71
2022/05/19 11:55:12;;;;;;;0.50;0.50;;;;;;;27.70;42.28;100550.66;5049972;28;20488;-72
2022/05/19 11:55:49;;;;;;;0.67;0.67;;;;;;;27.50;41.92;100537.31;5050344;28;20199;-72
2022/05/19 11:58:21;;;;;;;0.47;0.47;;;;;;;27.54;42.58;100526.81;5049631;28;20631;-71